Time;durP1;ratioP1;P1;durP2;ratioP2;P2;SDS_P1;SDS_P2;PMS_P1;PMS_P2;Temp;Humidity;BMP_temperature;BMP_pressure;BME280_temperature;BME280_humidity;BME280_pressure;Samples;Min_cycle;Max_cycle;Signal;HPM_P1;HPM_P2
2023/01/20 00:01:05;;;;;;;21.10;7.97;;;3.20;99.90;;;;;;5032379;28;20481;-72
2023/01/20 00:03:32;;;;;;;14.97;7.97;;;3.30;99.90;;;;;;5032934;28;20415;-72
2023/01/20 00:05:59;;;;;;;7.03;5.27;;;3.20;99.90;;;;;;5032405;28;20513;-72
2023/01/20 00:08:25;;;;;;;19.87;9.23;;;3.30;99.90;;;;;;5032823;28;20824;-73
2023/01/20 00:10:52;;;;;;;6.10;5.43;;;3.20;99.90;;;;;;5032529;28;20455;-72
2023/01/20 00:13:20;;;;;;;21.87;9.17;;;3.20;99.90;;;;;;5032926;28;20801;-73
2023/01/20 00:15:48;;;;;;;14.40;8.40;;;3.30;99.90;;;;;;5032590;28;20534;-73
2023/01/20 00:18:15;;;;;;;20.93;8.90;;;3.30;99.90;;;;;;5032932;28;20476;-73
2023/01/20 00:20:42;;;;;;;19.97;7.50;;;3.40;99.90;;;;;;5043507;28;20533;-73
2023/01/20 00:23:09;;;;;;;27.67;11.57;;;3.50;99.90;;;;;;5037868;28;20423;-73
2023/01/20 00:25:36;;;;;;;25.63;9.27;;;3.50;99.90;;;;;;5032269;28;20482;-72
2023/01/20 00:28:03;;;;;;;19.80;8.73;;;3.40;99.90;;;;;;5032377;28;20947;-71
2023/01/20 00:30:30;;;;;;;22.43;9.90;;;3.50;99.90;;;;;;5032622;28;20433;-72
2023/01/20 00:32:59;;;;;;;20.67;11.97;;;3.50;99.90;;;;;;5032299;28;20533;-71
2023/01/20 00:35:26;;;;;;;25.13;9.67;;;3.50;99.90;;;;;;5032092;28;20445;-71
2023/01/20 00:37:53;;;;;;;19.67;10.17;;;3.50;99.90;;;;;;5032189;28;20522;-73
2023/01/20 00:40:20;;;;;;;27.03;10.33;;;3.40;99.90;;;;;;5032184;28;20503;-72
2023/01/20 00:42:47;;;;;;;26.97;11.03;;;3.40;99.90;;;;;;5032162;28;20426;-72
2023/01/20 00:45:13;;;;;;;27.67;11.90;;;3.40;99.90;;;;;;5031604;28;20412;-71
2023/01/20 00:47:40;;;;;;;37.23;10.57;;;3.40;99.90;;;;;;5032038;28;20460;-71
2023/01/20 00:50:10;;;;;;;28.03;11.37;;;3.40;99.90;;;;;;5032170;28;20423;-72
2023/01/20 00:52:37;;;;;;;22.40;13.30;;;3.30;99.90;;;;;;5032050;28;20424;-71
2023/01/20 00:55:04;;;;;;;21.93;9.60;;;3.30;99.90;;;;;;5032155;28;20452;-72
2023/01/20 00:57:31;;;;;;;16.23;8.73;;;3.30;99.90;;;;;;5031642;28;20452;-72
2023/01/20 00:59:58;;;;;;;21.63;11.50;;;3.30;99.90;;;;;;5033771;28;20414;-72
2023/01/20 01:02:25;;;;;;;11.60;7.43;;;3.20;99.90;;;;;;5041146;28;20441;-72
2023/01/20 01:04:52;;;;;;;19.30;9.60;;;3.20;99.90;;;;;;5032285;28;21025;-73
2023/01/20 01:07:20;;;;;;;11.00;8.27;;;3.00;99.90;;;;;;5031867;28;20546;-72
2023/01/20 01:09:47;;;;;;;20.17;12.83;;;3.00;99.90;;;;;;5031961;28;20511;-71
2023/01/20 01:12:14;;;;;;;19.60;9.10;;;2.90;99.90;;;;;;5031925;28;20789;-72
2023/01/20 01:14:40;;;;;;;16.47;5.87;;;2.90;99.90;;;;;;5031897;28;20502;-72
2023/01/20 01:17:07;;;;;;;22.73;12.33;;;2.90;99.90;;;;;;5031981;28;20547;-74
2023/01/20 01:19:34;;;;;;;29.50;11.97;;;3.00;99.90;;;;;;5031812;28;20449;-73
2023/01/20 01:22:01;;;;;;;14.67;9.27;;;3.00;99.90;;;;;;5031766;28;20809;-73
2023/01/20 01:24:29;;;;;;;18.17;9.90;;;2.90;99.90;;;;;;5031771;28;20456;-72
2023/01/20 01:26:56;;;;;;;17.20;9.17;;;3.00;99.90;;;;;;5031830;28;20542;-72
2023/01/20 01:29:23;;;;;;;13.50;9.00;;;2.90;99.90;;;;;;5031855;28;20510;-73
2023/01/20 01:31:50;;;;;;;17.07;7.17;;;2.80;99.90;;;;;;5031865;28;20531;-72
2023/01/20 01:34:16;;;;;;;14.33;7.77;;;2.80;99.90;;;;;;5031330;28;21032;-72
2023/01/20 01:36:43;;;;;;;28.57;11.30;;;2.70;99.90;;;;;;5033617;28;20416;-72
2023/01/20 01:39:10;;;;;;;20.63;11.17;;;2.70;99.90;;;;;;5041737;28;20555;-73
2023/01/20 01:41:38;;;;;;;20.07;11.17;;;2.60;99.90;;;;;;5035128;28;20424;-72
2023/01/20 01:44:08;;;;;;;10.13;5.97;;;2.70;99.90;;;;;;5031965;28;20556;-73
2023/01/20 01:46:35;;;;;;;24.77;10.47;;;2.70;99.90;;;;;;5031560;28;20488;-73
2023/01/20 01:49:06;;;;;;;18.70;9.70;;;2.70;99.90;;;;;;5031234;28;20556;-72
2023/01/20 01:51:37;;;;;;;24.77;12.17;;;2.80;99.90;;;;;;5031644;28;20440;-73
2023/01/20 01:54:09;;;;;;;12.70;5.67;;;2.90;99.90;;;;;;5031780;28;20437;-72
2023/01/20 01:56:38;;;;;;;11.03;8.63;;;2.90;99.90;;;;;;5031235;28;20408;-72
2023/01/20 01:59:05;;;;;;;19.60;11.87;;;2.80;99.90;;;;;;5034695;28;20483;-72
2023/01/20 02:01:34;;;;;;;17.73;11.40;;;2.80;99.90;;;;;;5034962;28;20507;-72
2023/01/20 02:04:05;;;;;;;22.87;12.40;;;2.90;99.90;;;;;;5035079;28;20519;-73
2023/01/20 02:06:34;;;;;;;18.67;10.03;;;2.80;99.90;;;;;;5035340;28;20511;-73
2023/01/20 02:09:03;;;;;;;15.83;8.47;;;2.90;99.90;;;;;;5035088;28;20476;-72
2023/01/20 02:11:31;;;;;;;28.40;11.67;;;2.90;99.90;;;;;;5034526;28;20479;-73
2023/01/20 02:13:59;;;;;;;18.37;10.93;;;3.10;99.90;;;;;;5034542;28;20962;-72
2023/01/20 02:16:38;;;;;;;17.40;9.37;;;2.90;99.90;;;;;;5034988;28;20441;-73
2023/01/20 02:19:40;;;;;;;28.07;12.87;;;2.90;99.90;;;;;;5046345;28;20492;-72
2023/01/20 02:22:28;;;;;;;21.50;9.43;;;3.00;99.90;;;;;;5034366;28;20427;-73
2023/01/20 02:25:23;;;;;;;19.70;11.07;;;3.20;99.90;;;;;;5034797;28;20520;-72
2023/01/20 02:28:13;;;;;;;15.90;8.90;;;3.10;99.90;;;;;;5034436;28;20992;-73
2023/01/20 02:31:12;;;;;;;19.80;11.20;;;3.00;99.90;;;;;;5034812;28;20451;-73
2023/01/20 02:33:44;;;;;;;17.87;8.47;;;3.00;99.90;;;;;;5031946;28;20449;-73
2023/01/20 02:36:14;;;;;;;27.47;12.20;;;3.00;99.90;;;;;;5034397;28;20408;-73
2023/01/20 02:38:45;;;;;;;12.50;8.83;;;3.10;99.90;;;;;;5034330;28;21010;-72
2023/01/20 02:41:20;;;;;;;22.70;9.70;;;3.00;99.90;;;;;;5034049;28;20935;-73
2023/01/20 02:43:54;;;;;;;19.70;9.80;;;3.00;99.90;;;;;;5034551;28;20403;-73
2023/01/20 02:46:26;;;;;;;12.43;6.23;;;3.00;99.90;;;;;;5034493;28;20827;-72
2023/01/20 02:48:59;;;;;;;12.37;5.97;;;3.00;99.90;;;;;;5034079;28;20471;-73
2023/01/20 02:51:29;;;;;;;24.80;11.70;;;2.80;99.90;;;;;;5034457;28;20425;-73
2023/01/20 02:54:01;;;;;;;18.23;10.00;;;2.70;99.90;;;;;;5034873;28;20431;-73
2023/01/20 02:56:31;;;;;;;8.83;3.80;;;2.80;99.90;;;;;;5041995;28;20423;-73
2023/01/20 02:59:02;;;;;;;17.93;9.17;;;2.90;99.90;;;;;;5037747;28;20482;-73
2023/01/20 03:01:48;;;;;;;11.80;8.47;;;2.90;99.90;;;;;;5012045;28;20419;-73
2023/01/20 03:04:20;;;;;;;20.60;13.40;;;2.90;99.90;;;;;;5034522;28;20438;-73
2023/01/20 03:06:51;;;;;;;8.30;4.90;;;2.80;99.90;;;;;;5034320;28;20538;-73
2023/01/20 03:09:21;;;;;;;15.60;10.50;;;2.70;99.90;;;;;;5033628;28;20468;-73
2023/01/20 03:11:53;;;;;;;20.03;9.63;;;2.80;99.90;;;;;;5034069;28;20484;-74
2023/01/20 03:14:20;;;;;;;20.80;9.63;;;2.80;99.90;;;;;;5033736;28;20416;-73
2023/01/20 03:16:49;;;;;;;22.83;13.00;;;2.90;99.90;;;;;;5033657;28;20426;-73
2023/01/20 03:19:18;;;;;;;24.23;11.17;;;2.90;99.90;;;;;;5033656;28;20447;-73
2023/01/20 03:21:46;;;;;;;20.80;9.00;;;2.90;99.90;;;;;;5033819;28;20862;-72
2023/01/20 03:24:13;;;;;;;6.57;4.63;;;2.90;99.90;;;;;;5033433;28;20976;-72
2023/01/20 03:26:40;;;;;;;16.03;8.00;;;2.90;99.90;;;;;;5033337;28;20535;-72
2023/01/20 03:29:11;;;;;;;15.70;8.20;;;2.80;99.90;;;;;;5033498;28;20454;-72
2023/01/20 03:31:41;;;;;;;17.63;8.53;;;2.90;99.90;;;;;;5033571;28;20437;-72
2023/01/20 03:34:12;;;;;;;14.67;7.53;;;2.80;99.90;;;;;;5033598;28;20423;-73
2023/01/20 03:36:44;;;;;;;15.90;7.50;;;2.90;99.90;;;;;;5037140;28;20524;-73
2023/01/20 03:39:11;;;;;;;27.07;10.73;;;2.90;99.90;;;;;;5033862;28;20484;-73
2023/01/20 03:41:52;;;;;;;10.30;4.97;;;2.80;99.90;;;;;;5034112;28;20430;-73
2023/01/20 03:44:27;;;;;;;16.97;8.47;;;2.80;99.90;;;;;;5033414;28;20433;-73
2023/01/20 03:47:03;;;;;;;27.17;11.83;;;2.80;99.90;;;;;;5033190;28;20491;-74
2023/01/20 03:49:36;;;;;;;15.70;10.23;;;2.90;99.90;;;;;;5033274;28;20864;-73
2023/01/20 03:52:10;;;;;;;30.07;9.63;;;2.80;99.90;;;;;;5033448;28;20406;-73
2023/01/20 03:54:44;;;;;;;20.70;9.77;;;2.80;99.90;;;;;;5033074;28;20412;-73
2023/01/20 03:57:14;;;;;;;26.23;13.80;;;2.80;99.90;;;;;;5032598;28;20466;-73
2023/01/20 03:59:43;;;;;;;11.90;7.20;;;3.00;99.90;;;;;;5032792;28;20901;-73
2023/01/20 04:02:11;;;;;;;20.33;13.33;;;3.00;99.90;;;;;;5032722;28;20456;-73
2023/01/20 04:04:41;;;;;;;21.47;9.77;;;2.90;99.90;;;;;;5032862;28;20506;-73
2023/01/20 04:07:12;;;;;;;17.87;8.50;;;2.80;99.90;;;;;;5032406;28;20485;-73
2023/01/20 04:09:43;;;;;;;15.17;7.80;;;2.70;99.90;;;;;;5032713;28;20883;-73
2023/01/20 04:12:10;;;;;;;17.30;8.83;;;2.70;99.90;;;;;;5035563;28;20861;-73
2023/01/20 04:14:37;;;;;;;18.23;6.93;;;2.70;99.90;;;;;;5042433;28;20488;-72
2023/01/20 04:17:06;;;;;;;12.60;10.27;;;2.60;99.90;;;;;;5033669;28;20531;-72
2023/01/20 04:19:36;;;;;;;13.00;6.30;;;2.60;99.90;;;;;;5032224;28;20432;-72
2023/01/20 04:22:07;;;;;;;19.57;9.43;;;2.50;99.90;;;;;;5032372;28;20789;-72
2023/01/20 04:24:41;;;;;;;18.03;8.63;;;2.60;99.90;;;;;;5032204;28;20495;-73
2023/01/20 04:27:08;;;;;;;9.37;4.80;;;2.70;99.90;;;;;;5031903;28;20418;-72
2023/01/20 04:29:35;;;;;;;20.33;7.60;;;2.60;99.90;;;;;;5032110;28;20579;-73
2023/01/20 04:32:03;;;;;;;5.80;4.83;;;2.60;99.90;;;;;;5031796;28;20959;-72
2023/01/20 04:34:30;;;;;;;20.47;9.60;;;2.70;99.90;;;;;;5031604;28;20491;-72
2023/01/20 04:36:57;;;;;;;15.27;8.47;;;2.70;99.90;;;;;;5031445;28;20459;-72
2023/01/20 04:39:24;;;;;;;10.57;7.53;;;2.70;99.90;;;;;;5032869;28;20433;-73
2023/01/20 04:41:52;;;;;;;16.50;8.13;;;2.80;99.90;;;;;;5033060;28;20551;-72
2023/01/20 04:44:19;;;;;;;19.20;7.30;;;2.90;99.90;;;;;;5031709;28;20449;-72
2023/01/20 04:46:46;;;;;;;20.33;9.30;;;3.00;99.90;;;;;;5031974;28;20638;-73
2023/01/20 04:49:14;;;;;;;21.80;8.40;;;3.00;99.90;;;;;;5031857;28;20853;-72
2023/01/20 04:51:41;;;;;;;8.70;6.00;;;3.00;99.90;;;;;;5031936;28;21028;-73
2023/01/20 04:54:07;;;;;;;14.83;8.30;;;3.00;99.90;;;;;;5036394;28;20426;-73
2023/01/20 04:56:36;;;;;;;15.93;6.27;;;2.90;99.90;;;;;;5032124;28;20535;-74
2023/01/20 04:59:05;;;;;;;15.10;8.93;;;3.00;99.90;;;;;;5031432;28;20542;-73
2023/01/20 05:01:31;;;;;;;18.67;7.70;;;3.00;99.90;;;;;;5031545;28;20949;-72
2023/01/20 05:03:58;;;;;;;16.53;7.70;;;2.90;99.90;;;;;;5031792;28;20497;-73
2023/01/20 05:06:25;;;;;;;4.03;2.67;;;2.90;99.90;;;;;;5031565;28;20428;-72
2023/01/20 05:08:52;;;;;;;8.10;3.47;;;2.80;99.90;;;;;;5031686;28;20455;-73
2023/01/20 05:11:19;;;;;;;21.47;7.93;;;2.70;99.90;;;;;;5031818;28;20844;-72
2023/01/20 05:13:46;;;;;;;28.63;10.33;;;2.80;99.90;;;;;;5031632;28;20423;-72
2023/01/20 05:16:14;;;;;;;14.77;6.63;;;2.90;99.90;;;;;;5032068;28;20627;-72
2023/01/20 05:18:41;;;;;;;12.07;8.80;;;2.80;99.90;;;;;;5031762;28;20556;-72
2023/01/20 05:21:08;;;;;;;16.90;7.03;;;2.70;99.90;;;;;;5031863;28;20498;-73
2023/01/20 05:23:35;;;;;;;16.30;7.43;;;2.70;99.90;;;;;;5031566;28;20434;-72
2023/01/20 05:26:02;;;;;;;34.10;11.03;;;2.70;99.90;;;;;;5031952;28;20427;-73
2023/01/20 05:28:29;;;;;;;26.90;10.43;;;2.70;99.90;;;;;;5031720;28;20550;-74
2023/01/20 05:30:56;;;;;;;14.40;8.70;;;2.80;99.90;;;;;;5039102;28;20449;-73
2023/01/20 05:33:24;;;;;;;22.00;9.83;;;2.70;99.90;;;;;;5038348;28;21063;-71
2023/01/20 05:35:52;;;;;;;12.87;7.93;;;2.80;99.90;;;;;;5034075;28;20419;-72
2023/01/20 05:38:19;;;;;;;21.17;9.43;;;2.70;99.90;;;;;;5035369;28;20447;-73
2023/01/20 05:40:46;;;;;;;18.97;9.20;;;2.70;99.90;;;;;;5035613;28;20916;-73
2023/01/20 05:43:13;;;;;;;30.63;11.40;;;2.70;99.90;;;;;;5035904;28;20452;-74
2023/01/20 05:45:45;;;;;;;7.90;3.97;;;2.70;99.90;;;;;;5036002;28;20444;-72
2023/01/20 05:48:12;;;;;;;10.90;5.70;;;2.80;99.90;;;;;;5035031;28;20484;-72
2023/01/20 05:50:41;;;;;;;6.23;5.60;;;2.70;99.90;;;;;;5035433;28;20445;-72
2023/01/20 05:53:07;;;;;;;15.67;7.97;;;2.70;99.90;;;;;;5035089;28;20523;-72
2023/01/20 05:55:34;;;;;;;9.53;5.10;;;2.60;99.90;;;;;;5035587;28;20451;-73
2023/01/20 05:58:01;;;;;;;24.73;6.70;;;2.50;99.90;;;;;;5034804;28;20567;-73
2023/01/20 06:00:29;;;;;;;8.27;5.93;;;2.50;99.90;;;;;;5034539;28;20923;-72
2023/01/20 06:02:56;;;;;;;12.03;5.63;;;2.60;99.90;;;;;;5034999;28;20805;-72
2023/01/20 06:05:22;;;;;;;15.87;9.53;;;2.60;99.90;;;;;;5034849;28;20423;-73
2023/01/20 06:07:51;;;;;;;17.43;7.60;;;2.60;99.90;;;;;;5034748;28;20491;-73
2023/01/20 06:10:18;;;;;;;2.37;2.17;;;2.60;99.90;;;;;;5038209;28;20859;-73
2023/01/20 06:12:51;;;;;;;24.53;7.80;;;2.60;99.90;;;;;;5034746;28;20444;-72
2023/01/20 06:15:18;;;;;;;11.57;8.00;;;2.60;99.90;;;;;;5034748;28;20437;-72
2023/01/20 06:17:45;;;;;;;15.87;8.10;;;2.70;99.90;;;;;;5035006;28;20471;-73
2023/01/20 06:20:12;;;;;;;11.63;6.07;;;2.70;99.90;;;;;;5034615;28;20996;-73
2023/01/20 06:22:39;;;;;;;20.23;7.70;;;2.70;99.90;;;;;;5034780;28;20523;-73
2023/01/20 06:25:11;;;;;;;13.23;7.20;;;2.80;99.90;;;;;;5034822;28;20428;-72
2023/01/20 06:27:37;;;;;;;9.70;5.13;;;2.80;99.90;;;;;;5034553;28;20980;-73
2023/01/20 06:30:05;;;;;;;10.37;5.53;;;2.80;99.90;;;;;;5034584;28;20879;-72
2023/01/20 06:32:32;;;;;;;20.20;6.87;;;2.70;99.90;;;;;;5034959;28;20449;-74
2023/01/20 06:34:59;;;;;;;8.67;4.00;;;2.80;99.90;;;;;;5034805;28;20532;-72
2023/01/20 06:37:26;;;;;;;15.47;7.37;;;2.80;99.90;;;;;;5034583;28;20471;-73
2023/01/20 06:39:53;;;;;;;8.67;3.97;;;2.80;99.90;;;;;;5035306;28;20547;-73
2023/01/20 06:42:21;;;;;;;15.20;7.20;;;2.80;99.90;;;;;;5034027;28;20505;-74
2023/01/20 06:44:48;;;;;;;8.67;5.80;;;2.90;99.90;;;;;;5033986;28;20532;-73
2023/01/20 06:47:15;;;;;;;8.63;5.57;;;2.90;99.90;;;;;;5038929;28;20529;-73
2023/01/20 06:49:44;;;;;;;12.77;6.20;;;2.90;99.90;;;;;;5043488;28;20546;-73
2023/01/20 06:52:11;;;;;;;7.63;6.03;;;2.90;99.90;;;;;;5035165;28;20503;-72
2023/01/20 06:54:40;;;;;;;7.77;5.37;;;2.90;99.90;;;;;;5034376;28;20598;-72
2023/01/20 06:57:07;;;;;;;11.73;7.73;;;2.80;99.90;;;;;;5033939;28;20551;-73
2023/01/20 06:59:35;;;;;;;8.10;5.10;;;2.80;99.90;;;;;;5034227;28;20443;-73
2023/01/20 07:02:02;;;;;;;12.03;7.37;;;2.90;99.90;;;;;;5033800;28;20485;-73
2023/01/20 07:04:29;;;;;;;9.00;5.43;;;2.90;99.90;;;;;;5033532;28;20565;-72
2023/01/20 07:06:58;;;;;;;10.90;5.37;;;2.90;99.90;;;;;;5033784;28;20434;-72
2023/01/20 07:09:25;;;;;;;7.03;5.90;;;3.00;99.90;;;;;;5033817;28;20630;-74
2023/01/20 07:11:51;;;;;;;4.37;2.70;;;3.00;99.90;;;;;;5033329;28;20419;-73
2023/01/20 07:14:18;;;;;;;9.53;5.23;;;3.00;99.90;;;;;;5033832;28;20427;-72
2023/01/20 07:16:47;;;;;;;7.57;5.13;;;3.00;99.90;;;;;;5034056;28;20438;-72
2023/01/20 07:19:14;;;;;;;15.13;6.67;;;3.00;99.90;;;;;;5033583;28;20548;-74
2023/01/20 07:21:41;;;;;;;7.97;4.73;;;3.00;99.90;;;;;;5033903;28;20518;-73
2023/01/20 07:24:09;;;;;;;12.03;5.97;;;3.10;99.90;;;;;;5033879;28;20617;-72
2023/01/20 07:26:36;;;;;;;10.70;5.63;;;3.10;99.90;;;;;;5037434;28;20454;-73
2023/01/20 07:29:03;;;;;;;9.43;5.93;;;3.00;99.90;;;;;;5036704;28;20459;-72
2023/01/20 07:31:32;;;;;;;10.87;5.13;;;2.90;99.90;;;;;;5034126;28;20434;-73
2023/01/20 07:34:00;;;;;;;7.50;5.30;;;2.90;99.90;;;;;;5033520;28;20916;-73
2023/01/20 07:36:27;;;;;;;4.73;3.03;;;2.90;99.90;;;;;;5033344;28;20427;-72
2023/01/20 07:38:54;;;;;;;6.97;5.10;;;3.00;99.90;;;;;;5033091;28;20850;-72
2023/01/20 07:41:25;;;;;;;9.43;4.83;;;3.00;99.90;;;;;;5033300;28;20536;-73
2023/01/20 07:43:54;;;;;;;4.13;3.20;;;3.00;99.90;;;;;;5033276;28;20433;-72
2023/01/20 07:46:21;;;;;;;13.80;6.50;;;3.00;99.90;;;;;;5033211;28;20441;-72
2023/01/20 07:48:50;;;;;;;13.57;6.13;;;2.90;99.90;;;;;;5032650;28;20571;-72
2023/01/20 07:51:19;;;;;;;15.10;5.53;;;2.90;99.90;;;;;;5033044;28;20884;-72
2023/01/20 07:53:47;;;;;;;17.50;7.63;;;2.90;99.90;;;;;;5033075;28;20444;-72
2023/01/20 07:56:15;;;;;;;3.93;3.40;;;2.90;99.90;;;;;;5033010;28;20980;-72
2023/01/20 07:58:44;;;;;;;30.57;9.20;;;2.90;99.90;;;;;;5032390;28;20459;-73
2023/01/20 08:01:12;;;;;;;12.23;5.43;;;2.90;99.90;;;;;;5032647;28;20967;-72
2023/01/20 08:03:40;;;;;;;6.83;3.20;;;3.00;99.90;;;;;;5032679;28;20480;-73
2023/01/20 08:06:08;;;;;;;8.00;6.43;;;3.10;99.90;;;;;;5040543;28;21008;-73
2023/01/20 08:08:37;;;;;;;9.00;4.00;;;2.90;99.90;;;;;;5034989;28;20459;-72
2023/01/20 08:11:06;;;;;;;12.73;6.00;;;2.80;99.90;;;;;;5033299;28;20532;-73
2023/01/20 08:13:33;;;;;;;9.00;5.20;;;2.90;99.90;;;;;;5032856;28;20532;-72
2023/01/20 08:16:01;;;;;;;4.93;4.40;;;2.90;99.90;;;;;;5032629;28;20912;-72
2023/01/20 08:18:28;;;;;;;6.77;4.13;;;2.90;99.90;;;;;;5032671;28;20812;-73
2023/01/20 08:20:55;;;;;;;5.77;4.40;;;2.90;99.90;;;;;;5032335;28;20424;-72
2023/01/20 08:23:22;;;;;;;16.07;5.90;;;2.90;99.90;;;;;;5032362;28;20464;-72
2023/01/20 08:25:57;;;;;;;10.17;4.80;;;3.00;99.90;;;;;;5032503;28;20450;-72
2023/01/20 08:28:24;;;;;;;8.20;4.80;;;3.00;99.90;;;;;;5032282;28;20477;-73
2023/01/20 08:30:51;;;;;;;6.90;4.77;;;3.00;99.90;;;;;;5032170;28;20485;-73
2023/01/20 08:33:18;;;;;;;10.43;7.33;;;3.10;99.90;;;;;;5032545;28;20518;-72
2023/01/20 08:35:44;;;;;;;4.17;2.97;;;3.20;99.90;;;;;;5032600;28;20489;-72
2023/01/20 08:38:11;;;;;;;11.90;3.73;;;3.20;99.90;;;;;;5031966;28;20498;-73
2023/01/20 08:40:41;;;;;;;4.70;3.00;;;3.20;99.90;;;;;;5032348;28;20487;-74
2023/01/20 08:43:09;;;;;;;6.50;4.40;;;3.10;99.90;;;;;;5032401;28;20532;-74
2023/01/20 08:45:36;;;;;;;6.03;3.40;;;2.90;99.90;;;;;;5038506;28;20527;-73
2023/01/20 08:48:03;;;;;;;2.47;2.20;;;2.80;99.90;;;;;;5032735;28;20443;-72
2023/01/20 08:50:30;;;;;;;6.30;3.60;;;2.90;99.90;;;;;;5032151;28;20538;-72
2023/01/20 08:52:57;;;;;;;2.10;1.77;;;2.90;99.90;;;;;;5032448;28;20514;-73
2023/01/20 08:55:24;;;;;;;3.27;2.73;;;2.90;99.90;;;;;;5032218;28;20485;-73
2023/01/20 08:57:51;;;;;;;8.67;4.33;;;2.90;99.90;;;;;;5032082;28;20985;-72
2023/01/20 09:00:20;;;;;;;4.57;3.27;;;3.00;99.90;;;;;;5032532;28;20447;-72
2023/01/20 09:02:47;;;;;;;7.23;5.30;;;3.10;99.90;;;;;;5032324;28;20429;-72
2023/01/20 09:05:14;;;;;;;11.80;5.17;;;3.40;99.90;;;;;;5032000;28;21001;-72
2023/01/20 09:07:41;;;;;;;5.10;4.23;;;3.60;99.90;;;;;;5031069;28;20814;-72
2023/01/20 09:10:11;;;;;;;5.60;4.20;;;3.70;99.90;;;;;;5031721;28;20623;-73
2023/01/20 09:12:39;;;;;;;5.57;4.77;;;3.70;99.90;;;;;;5031410;28;20548;-72
2023/01/20 09:15:07;;;;;;;11.80;4.70;;;3.90;99.90;;;;;;5031923;28;20883;-72
2023/01/20 09:17:36;;;;;;;11.80;3.50;;;4.00;99.90;;;;;;5031814;28;20471;-73
2023/01/20 09:20:03;;;;;;;9.43;5.33;;;3.90;99.90;;;;;;5032090;28;20419;-72
2023/01/20 09:22:30;;;;;;;4.67;3.20;;;4.00;99.90;;;;;;5033882;28;20926;-73
2023/01/20 09:24:56;;;;;;;6.87;4.50;;;4.20;99.90;;;;;;5043405;28;20516;-73
2023/01/20 09:27:24;;;;;;;8.30;5.17;;;4.00;99.90;;;;;;5032913;28;20540;-72
2023/01/20 09:29:51;;;;;;;12.60;5.47;;;3.80;99.90;;;;;;5031719;28;20550;-72
2023/01/20 09:32:18;;;;;;;16.03;5.77;;;3.90;99.90;;;;;;5032088;28;20522;-72
2023/01/20 09:34:46;;;;;;;6.57;2.90;;;3.90;99.90;;;;;;5031959;28;20541;-72
2023/01/20 09:45:52;;;;;;;9.90;5.10;;;4.20;99.90;;;;;;5031594;28;20430;-72
2023/01/20 09:54:14;;;;;;;8.50;5.67;;;4.00;99.90;;;;;;5031655;28;20413;-72
2023/01/20 09:56:46;;;;;;;8.03;5.83;;;4.00;99.90;;;;;;5031297;28;20490;-72
2023/01/20 09:59:20;;;;;;;10.03;4.83;;;4.10;99.90;;;;;;5031747;28;20463;-72
2023/01/20 10:01:51;;;;;;;7.70;4.17;;;4.10;99.90;;;;;;5031490;28;20504;-73
2023/01/20 10:04:24;;;;;;;6.00;4.83;;;4.30;99.90;;;;;;5039514;28;20492;-73
2023/01/20 10:06:57;;;;;;;11.77;6.70;;;4.30;99.90;;;;;;5031696;28;20520;-72
2023/01/20 10:09:31;;;;;;;8.27;4.17;;;4.10;99.90;;;;;;5031478;28;20447;-72
2023/01/20 10:12:02;;;;;;;6.80;2.40;;;4.00;99.90;;;;;;5031560;28;20460;-73
2023/01/20 10:14:33;;;;;;;9.77;5.67;;;3.90;99.90;;;;;;5031128;28;20429;-73
2023/01/20 10:17:07;;;;;;;12.10;4.87;;;3.80;99.90;;;;;;5031243;28;20428;-72
2023/01/20 10:19:41;;;;;;;6.63;4.93;;;3.80;99.90;;;;;;5034550;28;20516;-72
2023/01/20 10:22:16;;;;;;;6.70;4.67;;;4.00;99.90;;;;;;5034585;28;20429;-72
2023/01/20 10:24:51;;;;;;;9.50;3.67;;;4.20;99.90;;;;;;5035019;28;20460;-72
2023/01/20 10:27:20;;;;;;;4.97;4.37;;;4.10;99.90;;;;;;5034860;28;20529;-72
2023/01/20 10:29:52;;;;;;;9.50;6.43;;;4.20;99.90;;;;;;5034598;28;20463;-73
2023/01/20 10:32:28;;;;;;;7.30;4.17;;;4.20;99.90;;;;;;5034441;28;20458;-73
2023/01/20 10:34:58;;;;;;;8.23;3.73;;;4.40;99.90;;;;;;5034653;28;20411;-73
2023/01/20 10:37:28;;;;;;;7.47;5.00;;;4.40;99.90;;;;;;5034652;28;20534;-72
2023/01/20 10:40:00;;;;;;;4.40;3.07;;;4.30;99.90;;;;;;5035524;28;20473;-72
2023/01/20 10:42:28;;;;;;;8.17;4.73;;;4.30;99.90;;;;;;5038664;28;20999;-72
2023/01/20 10:44:55;;;;;;;5.97;3.50;;;4.40;99.90;;;;;;5040329;28;21066;-72
2023/01/20 10:47:28;;;;;;;9.87;3.83;;;4.50;99.90;;;;;;5034155;28;20988;-73
2023/01/20 10:50:20;;;;;;;5.73;3.47;;;4.60;99.90;;;;;;5034425;28;20555;-72
2023/01/20 10:53:03;;;;;;;7.03;5.07;;;4.60;99.90;;;;;;5031859;28;20465;-73
2023/01/20 10:55:44;;;;;;;10.37;5.13;;;4.50;99.90;;;;;;5034043;28;20422;-72
2023/01/20 10:58:19;;;;;;;12.57;6.27;;;4.40;99.90;;;;;;5033701;28;20481;-72
2023/01/20 11:00:46;;;;;;;13.90;7.40;;;4.40;99.90;;;;;;5033848;28;20450;-72
2023/01/20 11:03:17;;;;;;;9.17;6.10;;;4.40;99.90;;;;;;5034530;28;20440;-73
2023/01/20 11:05:46;;;;;;;10.97;5.23;;;4.60;99.90;;;;;;5033807;28;20846;-72
2023/01/20 11:08:18;;;;;;;9.63;4.73;;;4.60;99.90;;;;;;5034105;28;20444;-72
2023/01/20 11:10:46;;;;;;;10.93;6.83;;;4.60;99.90;;;;;;5033731;28;20955;-72
2023/01/20 11:13:14;;;;;;;9.93;4.07;;;4.70;99.90;;;;;;5034223;28;20543;-73
2023/01/20 11:15:45;;;;;;;7.03;4.80;;;4.60;99.90;;;;;;5033612;28;20453;-72
2023/01/20 11:18:27;;;;;;;2.80;1.60;;;4.70;99.90;;;;;;5033851;28;20450;-73
2023/01/20 11:20:57;;;;;;;8.90;4.90;;;4.60;99.90;;;;;;5033316;28;21013;-72
2023/01/20 11:23:34;;;;;;;11.47;7.50;;;4.50;99.90;;;;;;5041843;28;20507;-72
2023/01/20 11:26:08;;;;;;;7.83;4.27;;;4.50;99.90;;;;;;5034063;28;20407;-72
2023/01/20 11:28:44;;;;;;;7.83;4.13;;;4.80;99.90;;;;;;5033417;28;20449;-72
2023/01/20 11:31:11;;;;;;;13.23;4.70;;;4.80;99.90;;;;;;5033447;28;21054;-72
2023/01/20 11:33:38;;;;;;;6.93;3.43;;;5.00;99.90;;;;;;5033765;28;20478;-72
2023/01/20 11:36:07;;;;;;;8.57;5.10;;;5.00;99.90;;;;;;5033798;28;20535;-72
2023/01/20 11:38:42;;;;;;;5.37;2.87;;;4.80;99.90;;;;;;5032906;28;20526;-72
2023/01/20 11:41:19;;;;;;;2.17;2.00;;;4.70;99.90;;;;;;5033317;28;20834;-72
2023/01/20 11:43:46;;;;;;;6.03;3.57;;;4.80;99.90;;;;;;5033226;28;20440;-72
2023/01/20 11:46:27;;;;;;;8.80;3.67;;;5.00;99.90;;;;;;5033292;28;20419;-72
2023/01/20 11:49:15;;;;;;;4.77;3.53;;;5.40;99.90;;;;;;5033216;28;20887;-73
2023/01/20 11:51:47;;;;;;;6.30;4.07;;;5.80;99.90;;;;;;5033152;28;20404;-72
2023/01/20 11:54:18;;;;;;;12.30;4.73;;;5.70;99.90;;;;;;5033159;28;20864;-72
2023/01/20 11:56:48;;;;;;;5.60;3.90;;;5.80;99.90;;;;;;5033409;28;20434;-72
2023/01/20 11:59:21;;;;;;;5.80;3.20;;;5.90;99.90;;;;;;5040570;28;20809;-73
2023/01/20 12:01:56;;;;;;;12.17;6.50;;;5.90;99.90;;;;;;5035493;28;20427;-73
2023/01/20 12:04:40;;;;;;;10.07;4.60;;;5.90;99.90;;;;;;5039367;28;20435;-72
2023/01/20 12:07:12;;;;;;;7.70;4.70;;;5.30;99.90;;;;;;5032900;28;20967;-72
2023/01/20 12:09:44;;;;;;;18.07;6.97;;;5.10;99.90;;;;;;5032407;28;20461;-72
2023/01/20 12:12:20;;;;;;;15.70;6.77;;;5.10;99.90;;;;;;5032857;28;20831;-72
2023/01/20 12:14:51;;;;;;;12.43;4.70;;;5.20;99.90;;;;;;5032804;28;20404;-73
2023/01/20 12:17:35;;;;;;;14.67;5.10;;;5.10;99.90;;;;;;5032389;28;20467;-72
2023/01/20 12:20:15;;;;;;;9.73;4.47;;;5.20;99.90;;;;;;5032759;28;20825;-73
2023/01/20 12:22:53;;;;;;;5.40;3.70;;;4.90;99.90;;;;;;5032531;28;20524;-72
2023/01/20 12:25:25;;;;;;;11.90;5.47;;;4.70;99.90;;;;;;5033071;28;20451;-72
2023/01/20 12:27:57;;;;;;;12.60;4.90;;;4.60;99.90;;;;;;5032797;28;20435;-72
2023/01/20 12:30:44;;;;;;;10.67;5.20;;;4.50;99.90;;;;;;5032543;28;20487;-72
2023/01/20 12:33:21;;;;;;;8.33;4.70;;;4.50;99.90;;;;;;5031887;28;20835;-73
2023/01/20 12:36:18;;;;;;;7.93;5.93;;;4.90;99.90;;;;;;5032110;28;20991;-73
2023/01/20 12:39:07;;;;;;;5.87;2.43;;;5.50;99.90;;;;;;5032243;28;20508;-72
2023/01/20 12:41:51;;;;;;;7.40;4.13;;;5.70;99.90;;;;;;5033424;28;20396;-73
2023/01/20 12:44:23;;;;;;;6.47;3.57;;;5.40;99.90;;;;;;5039685;28;20453;-72
2023/01/20 12:46:55;;;;;;;6.20;3.33;;;5.20;99.90;;;;;;5032462;28;20406;-72
2023/01/20 12:49:42;;;;;;;10.40;3.00;;;5.20;99.90;;;;;;5032069;28;20483;-72
2023/01/20 12:52:25;;;;;;;8.53;3.87;;;4.90;99.90;;;;;;5031887;28;20976;-72
2023/01/20 12:55:10;;;;;;;18.23;3.27;;;5.00;99.90;;;;;;5031763;28;20491;-73
2023/01/20 12:57:55;;;;;;;7.37;4.27;;;5.10;99.90;;;;;;5032395;28;20552;-72
2023/01/20 13:00:36;;;;;;;9.13;3.23;;;5.00;99.90;;;;;;5031435;28;20535;-72
2023/01/20 13:03:34;;;;;;;4.03;3.33;;;5.10;99.90;;;;;;5031658;28;20500;-73
2023/01/20 13:06:18;;;;;;;3.17;2.53;;;5.00;99.90;;;;;;5031768;28;20913;-72
2023/01/20 13:08:51;;;;;;;6.37;5.00;;;4.90;99.90;;;;;;5031696;28;20471;-73
2023/01/20 13:11:31;;;;;;;10.67;4.10;;;5.10;99.90;;;;;;5031784;28;20893;-72
2023/01/20 13:14:11;;;;;;;6.57;4.03;;;5.20;99.90;;;;;;5032985;28;20435;-73
2023/01/20 13:16:48;;;;;;;4.37;2.20;;;5.30;99.90;;;;;;5036620;28;20411;-72
2023/01/20 13:19:19;;;;;;;6.20;5.00;;;5.30;99.90;;;;;;5031711;28;20887;-72
2023/01/20 13:21:50;;;;;;;6.10;3.40;;;5.10;99.90;;;;;;5035661;28;20799;-72